sensor_id;sensor_type;location;lat;lon;timestamp;temperature;humidity
67870;DHT22;54673;52.262;6.830;2023-04-01T00:01:43;19.00;54.80
67870;DHT22;54673;52.262;6.830;2023-04-01T00:04:09;19.00;54.60
67870;DHT22;54673;52.262;6.830;2023-04-01T00:06:34;19.00;54.80
67870;DHT22;54673;52.262;6.830;2023-04-01T00:09:00;18.90;54.80
67870;DHT22;54673;52.262;6.830;2023-04-01T00:11:26;18.90;55.00
67870;DHT22;54673;52.262;6.830;2023-04-01T00:13:52;18.90;54.80
67870;DHT22;54673;52.262;6.830;2023-04-01T00:16:18;18.90;54.80
67870;DHT22;54673;52.262;6.830;2023-04-01T00:18:44;18.90;54.90
67870;DHT22;54673;52.262;6.830;2023-04-01T00:21:09;18.90;54.90
67870;DHT22;54673;52.262;6.830;2023-04-01T00:23:35;18.90;54.80
67870;DHT22;54673;52.262;6.830;2023-04-01T00:26:02;18.90;54.80
67870;DHT22;54673;52.262;6.830;2023-04-01T00:28:28;18.90;54.80
67870;DHT22;54673;52.262;6.830;2023-04-01T00:30:54;18.90;54.70
67870;DHT22;54673;52.262;6.830;2023-04-01T00:33:19;19.00;54.40
67870;DHT22;54673;52.262;6.830;2023-04-01T00:35:46;18.90;54.70
67870;DHT22;54673;52.262;6.830;2023-04-01T00:38:12;18.90;54.70
67870;DHT22;54673;52.262;6.830;2023-04-01T00:40:43;18.80;54.80
67870;DHT22;54673;52.262;6.830;2023-04-01T00:43:15;18.80;55.00
67870;DHT22;54673;52.262;6.830;2023-04-01T00:45:44;18.90;54.70
67870;DHT22;54673;52.262;6.830;2023-04-01T00:48:23;18.90;54.70
67870;DHT22;54673;52.262;6.830;2023-04-01T00:53:31;18.80;54.80
67870;DHT22;54673;52.262;6.830;2023-04-01T00:56:04;18.80;54.90
67870;DHT22;54673;52.262;6.830;2023-04-01T00:58:34;18.80;54.80
67870;DHT22;54673;52.262;6.830;2023-04-01T01:01:00;18.80;54.80
67870;DHT22;54673;52.262;6.830;2023-04-01T01:03:27;18.80;54.70
67870;DHT22;54673;52.262;6.830;2023-04-01T01:05:56;18.80;54.50
67870;DHT22;54673;52.262;6.830;2023-04-01T01:11:05;18.70;54.80
67870;DHT22;54673;52.262;6.830;2023-04-01T01:13:56;18.80;54.70
67870;DHT22;54673;52.262;6.830;2023-04-01T01:16:29;18.80;54.80
67870;DHT22;54673;52.262;6.830;2023-04-01T01:24:40;18.70;54.80
67870;DHT22;54673;52.262;6.830;2023-04-01T01:27:12;18.80;54.50
67870;DHT22;54673;52.262;6.830;2023-04-01T01:32:44;18.70;55.00
67870;DHT22;54673;52.262;6.830;2023-04-01T01:37:55;18.80;54.70
67870;DHT22;54673;52.262;6.830;2023-04-01T01:40:22;18.80;54.60
67870;DHT22;54673;52.262;6.830;2023-04-01T01:42:53;18.80;54.60
67870;DHT22;54673;52.262;6.830;2023-04-01T01:45:21;18.70;54.60
67870;DHT22;54673;52.262;6.830;2023-04-01T01:47:50;18.70;54.70
67870;DHT22;54673;52.262;6.830;2023-04-01T01:50:17;18.70;54.60
67870;DHT22;54673;52.262;6.830;2023-04-01T01:52:43;18.70;54.60
67870;DHT22;54673;52.262;6.830;2023-04-01T01:55:34;18.80;54.30
67870;DHT22;54673;52.262;6.830;2023-04-01T01:58:17;18.80;54.40
67870;DHT22;54673;52.262;6.830;2023-04-01T02:00:50;18.80;54.40
67870;DHT22;54673;52.262;6.830;2023-04-01T02:03:17;18.80;54.40
67870;DHT22;54673;52.262;6.830;2023-04-01T02:05:45;18.40;53.90
67870;DHT22;54673;52.262;6.830;2023-04-01T02:08:18;18.80;54.30
67870;DHT22;54673;52.262;6.830;2023-04-01T02:11:00;18.80;54.40
67870;DHT22;54673;52.262;6.830;2023-04-01T02:13:45;18.70;54.40
67870;DHT22;54673;52.262;6.830;2023-04-01T02:16:28;18.70;54.30
67870;DHT22;54673;52.262;6.830;2023-04-01T02:18:58;18.70;54.30
67870;DHT22;54673;52.262;6.830;2023-04-01T02:21:27;18.70;54.40
67870;DHT22;54673;52.262;6.830;2023-04-01T02:23:54;18.70;54.30
67870;DHT22;54673;52.262;6.830;2023-04-01T02:26:22;18.70;54.30
67870;DHT22;54673;52.262;6.830;2023-04-01T02:28:50;18.80;54.20
67870;DHT22;54673;52.262;6.830;2023-04-01T02:31:18;18.80;54.10
67870;DHT22;54673;52.262;6.830;2023-04-01T02:33:44;18.80;54.10
67870;DHT22;54673;52.262;6.830;2023-04-01T02:36:14;18.80;54.10
67870;DHT22;54673;52.262;6.830;2023-04-01T02:38:41;18.70;54.20
67870;DHT22;54673;52.262;6.830;2023-04-01T02:41:08;18.70;54.40
67870;DHT22;54673;52.262;6.830;2023-04-01T02:43:33;18.70;54.30
67870;DHT22;54673;52.262;6.830;2023-04-01T02:45:59;18.70;54.40
67870;DHT22;54673;52.262;6.830;2023-04-01T02:48:25;18.70;54.30
67870;DHT22;54673;52.262;6.830;2023-04-01T02:50:50;18.70;54.40
67870;DHT22;54673;52.262;6.830;2023-04-01T02:53:16;18.70;54.40
67870;DHT22;54673;52.262;6.830;2023-04-01T02:55:42;18.60;54.50
67870;DHT22;54673;52.262;6.830;2023-04-01T02:58:08;18.60;54.60
67870;DHT22;54673;52.262;6.830;2023-04-01T03:00:33;18.60;54.60
67870;DHT22;54673;52.262;6.830;2023-04-01T03:02:59;18.70;54.30
67870;DHT22;54673;52.262;6.830;2023-04-01T03:05:25;18.70;54.20
67870;DHT22;54673;52.262;6.830;2023-04-01T03:07:51;18.80;54.10
67870;DHT22;54673;52.262;6.830;2023-04-01T03:10:16;18.60;54.40
67870;DHT22;54673;52.262;6.830;2023-04-01T03:12:42;18.70;54.30
67870;DHT22;54673;52.262;6.830;2023-04-01T03:15:10;18.70;54.30
67870;DHT22;54673;52.262;6.830;2023-04-01T03:17:37;18.60;54.60
67870;DHT22;54673;52.262;6.830;2023-04-01T03:20:02;18.60;54.60
67870;DHT22;54673;52.262;6.830;2023-04-01T03:22:30;18.70;54.50
67870;DHT22;54673;52.262;6.830;2023-04-01T03:24:56;18.70;54.10
67870;DHT22;54673;52.262;6.830;2023-04-01T03:27:21;18.60;54.30
67870;DHT22;54673;52.262;6.830;2023-04-01T03:29:47;18.70;54.30
67870;DHT22;54673;52.262;6.830;2023-04-01T03:32:12;18.60;54.40
67870;DHT22;54673;52.262;6.830;2023-04-01T03:34:38;18.60;54.50
67870;DHT22;54673;52.262;6.830;2023-04-01T03:37:03;18.70;54.20
67870;DHT22;54673;52.262;6.830;2023-04-01T03:39:30;18.80;54.00
67870;DHT22;54673;52.262;6.830;2023-04-01T03:41:56;18.60;54.40
67870;DHT22;54673;52.262;6.830;2023-04-01T03:44:21;18.70;54.20
67870;DHT22;54673;52.262;6.830;2023-04-01T03:46:47;18.70;54.10
67870;DHT22;54673;52.262;6.830;2023-04-01T03:49:13;18.60;54.30
67870;DHT22;54673;52.262;6.830;2023-04-01T03:51:39;18.60;54.30
67870;DHT22;54673;52.262;6.830;2023-04-01T03:54:05;18.70;54.20
67870;DHT22;54673;52.262;6.830;2023-04-01T03:56:31;18.70;54.30
67870;DHT22;54673;52.262;6.830;2023-04-01T03:58:57;18.60;54.30
67870;DHT22;54673;52.262;6.830;2023-04-01T04:01:22;18.70;54.30
67870;DHT22;54673;52.262;6.830;2023-04-01T04:03:49;18.60;54.30
67870;DHT22;54673;52.262;6.830;2023-04-01T04:06:16;18.50;54.50
67870;DHT22;54673;52.262;6.830;2023-04-01T04:08:41;18.60;54.40
67870;DHT22;54673;52.262;6.830;2023-04-01T04:11:07;18.60;54.30
67870;DHT22;54673;52.262;6.830;2023-04-01T04:13:33;18.60;54.30
67870;DHT22;54673;52.262;6.830;2023-04-01T04:15:59;18.60;54.50
67870;DHT22;54673;52.262;6.830;2023-04-01T04:18:24;18.60;54.40
67870;DHT22;54673;52.262;6.830;2023-04-01T04:20:50;18.50;54.50
67870;DHT22;54673;52.262;6.830;2023-04-01T04:23:17;18.50;54.50
67870;DHT22;54673;52.262;6.830;2023-04-01T04:25:58;18.50;54.50
67870;DHT22;54673;52.262;6.830;2023-04-01T04:28:25;18.50;54.70
67870;DHT22;54673;52.262;6.830;2023-04-01T04:30:51;18.50;54.60
67870;DHT22;54673;52.262;6.830;2023-04-01T04:33:17;18.50;54.60
67870;DHT22;54673;52.262;6.830;2023-04-01T04:35:43;18.50;54.70
67870;DHT22;54673;52.262;6.830;2023-04-01T04:38:09;18.50;54.70
67870;DHT22;54673;52.262;6.830;2023-04-01T04:40:36;18.60;54.50
67870;DHT22;54673;52.262;6.830;2023-04-01T04:43:03;18.50;54.50
67870;DHT22;54673;52.262;6.830;2023-04-01T04:45:28;18.50;54.40
67870;DHT22;54673;52.262;6.830;2023-04-01T04:47:54;18.50;54.60
67870;DHT22;54673;52.262;6.830;2023-04-01T04:50:20;18.50;54.60
67870;DHT22;54673;52.262;6.830;2023-04-01T04:52:45;18.50;54.70
67870;DHT22;54673;52.262;6.830;2023-04-01T04:55:11;18.50;54.70
67870;DHT22;54673;52.262;6.830;2023-04-01T04:57:36;18.50;54.60
67870;DHT22;54673;52.262;6.830;2023-04-01T05:00:02;18.50;54.70
67870;DHT22;54673;52.262;6.830;2023-04-01T05:02:28;18.40;54.80
67870;DHT22;54673;52.262;6.830;2023-04-01T05:04:54;18.40;54.70
67870;DHT22;54673;52.262;6.830;2023-04-01T05:07:20;18.50;54.70
67870;DHT22;54673;52.262;6.830;2023-04-01T05:09:45;18.50;54.50
67870;DHT22;54673;52.262;6.830;2023-04-01T05:12:12;18.50;54.50
67870;DHT22;54673;52.262;6.830;2023-04-01T05:14:38;18.50;54.50
67870;DHT22;54673;52.262;6.830;2023-04-01T05:17:04;18.50;54.60
67870;DHT22;54673;52.262;6.830;2023-04-01T05:19:29;18.50;54.60
67870;DHT22;54673;52.262;6.830;2023-04-01T05:21:55;18.50;54.50
67870;DHT22;54673;52.262;6.830;2023-04-01T05:24:21;18.50;54.60
67870;DHT22;54673;52.262;6.830;2023-04-01T05:26:46;18.50;54.50
67870;DHT22;54673;52.262;6.830;2023-04-01T05:29:12;18.40;54.80
67870;DHT22;54673;52.262;6.830;2023-04-01T05:31:37;18.40;54.70
67870;DHT22;54673;52.262;6.830;2023-04-01T05:34:03;18.40;55.60
67870;DHT22;54673;52.262;6.830;2023-04-01T05:36:28;18.40;54.70
67870;DHT22;54673;52.262;6.830;2023-04-01T05:38:57;18.40;54.80
67870;DHT22;54673;52.262;6.830;2023-04-01T05:41:22;18.40;54.70
67870;DHT22;54673;52.262;6.830;2023-04-01T05:43:48;18.40;54.80
67870;DHT22;54673;52.262;6.830;2023-04-01T05:46:13;18.40;54.60
67870;DHT22;54673;52.262;6.830;2023-04-01T05:48:39;18.40;54.70
67870;DHT22;54673;52.262;6.830;2023-04-01T05:51:04;18.50;54.70
67870;DHT22;54673;52.262;6.830;2023-04-01T05:53:30;18.40;54.80
67870;DHT22;54673;52.262;6.830;2023-04-01T05:55:56;18.50;54.70
67870;DHT22;54673;52.262;6.830;2023-04-01T05:58:21;18.50;54.50
67870;DHT22;54673;52.262;6.830;2023-04-01T06:00:48;18.50;54.60
67870;DHT22;54673;52.262;6.830;2023-04-01T06:03:14;18.40;54.80
67870;DHT22;54673;52.262;6.830;2023-04-01T06:05:42;18.40;54.70
67870;DHT22;54673;52.262;6.830;2023-04-01T06:08:16;18.50;54.70
67870;DHT22;54673;52.262;6.830;2023-04-01T06:13:52;18.40;54.60
67870;DHT22;54673;52.262;6.830;2023-04-01T06:16:54;18.50;54.60
67870;DHT22;54673;52.262;6.830;2023-04-01T06:27:47;18.30;55.00
67870;DHT22;54673;52.262;6.830;2023-04-01T06:33:06;18.00;55.80
67870;DHT22;54673;52.262;6.830;2023-04-01T06:35:35;17.90;56.10
67870;DHT22;54673;52.262;6.830;2023-04-01T06:43:43;17.90;56.50
67870;DHT22;54673;52.262;6.830;2023-04-01T06:46:28;17.90;56.60
67870;DHT22;54673;52.262;6.830;2023-04-01T06:52:17;17.90;56.80
67870;DHT22;54673;52.262;6.830;2023-04-01T06:54:44;17.90;56.70
67870;DHT22;54673;52.262;6.830;2023-04-01T06:59:48;17.90;56.80
67870;DHT22;54673;52.262;6.830;2023-04-01T07:02:52;17.90;56.80
67870;DHT22;54673;52.262;6.830;2023-04-01T07:05:11;17.90;56.80
67870;DHT22;54673;52.262;6.830;2023-04-01T07:07:47;17.50;56.60
67870;DHT22;54673;52.262;6.830;2023-04-01T07:10:27;17.90;56.90
67870;DHT22;54673;52.262;6.830;2023-04-01T07:12:57;17.90;56.90
67870;DHT22;54673;52.262;6.830;2023-04-01T07:15:33;17.90;56.90
67870;DHT22;54673;52.262;6.830;2023-04-01T07:18:05;17.90;56.80
67870;DHT22;54673;52.262;6.830;2023-04-01T07:20:33;17.80;56.80
67870;DHT22;54673;52.262;6.830;2023-04-01T07:23:02;17.80;56.80
67870;DHT22;54673;52.262;6.830;2023-04-01T07:25:34;17.80;56.90
67870;DHT22;54673;52.262;6.830;2023-04-01T07:28:04;17.80;56.80
67870;DHT22;54673;52.262;6.830;2023-04-01T07:30:44;17.80;57.00
67870;DHT22;54673;52.262;6.830;2023-04-01T07:33:37;18.10;56.60
67870;DHT22;54673;52.262;6.830;2023-04-01T07:36:31;18.30;56.40
67870;DHT22;54673;52.262;6.830;2023-04-01T07:44:37;18.30;56.30
67870;DHT22;54673;52.262;6.830;2023-04-01T07:47:11;18.30;56.40
67870;DHT22;54673;52.262;6.830;2023-04-01T07:50:05;18.30;56.50
67870;DHT22;54673;52.262;6.830;2023-04-01T07:56:04;18.20;56.50
67870;DHT22;54673;52.262;6.830;2023-04-01T08:01:34;18.20;56.50
67870;DHT22;54673;52.262;6.830;2023-04-01T08:04:21;18.30;56.40
67870;DHT22;54673;52.262;6.830;2023-04-01T08:09:55;18.30;56.40
67870;DHT22;54673;52.262;6.830;2023-04-01T08:12:43;18.30;56.30
67870;DHT22;54673;52.262;6.830;2023-04-01T08:15:27;18.30;56.20
67870;DHT22;54673;52.262;6.830;2023-04-01T08:21:02;18.40;56.20
67870;DHT22;54673;52.262;6.830;2023-04-01T08:23:32;18.30;56.00
67870;DHT22;54673;52.262;6.830;2023-04-01T08:29:38;18.40;56.00
67870;DHT22;54673;52.262;6.830;2023-04-01T08:32:22;18.40;55.90
67870;DHT22;54673;52.262;6.830;2023-04-01T08:35:02;18.50;55.80
67870;DHT22;54673;52.262;6.830;2023-04-01T08:37:33;18.50;55.60
67870;DHT22;54673;52.262;6.830;2023-04-01T08:40:30;18.50;55.60
67870;DHT22;54673;52.262;6.830;2023-04-01T08:45:40;18.50;55.60
67870;DHT22;54673;52.262;6.830;2023-04-01T08:48:23;18.50;55.50
67870;DHT22;54673;52.262;6.830;2023-04-01T08:53:59;18.50;55.70
67870;DHT22;54673;52.262;6.830;2023-04-01T09:15:37;18.50;55.70
67870;DHT22;54673;52.262;6.830;2023-04-01T09:18:37;18.50;55.60
67870;DHT22;54673;52.262;6.830;2023-04-01T09:38:19;18.60;55.80
67870;DHT22;54673;52.262;6.830;2023-04-01T09:49:05;18.60;55.50
67870;DHT22;54673;52.262;6.830;2023-04-01T09:54:38;18.60;55.60
67870;DHT22;54673;52.262;6.830;2023-04-01T09:57:21;18.60;55.90
67870;DHT22;54673;52.262;6.830;2023-04-01T10:02:59;18.60;55.90
67870;DHT22;54673;52.262;6.830;2023-04-01T10:05:54;18.60;56.00
67870;DHT22;54673;52.262;6.830;2023-04-01T10:27:44;18.70;55.80
67870;DHT22;54673;52.262;6.830;2023-04-01T10:36:17;18.80;55.70
67870;DHT22;54673;52.262;6.830;2023-04-01T10:50:31;18.90;55.20
67870;DHT22;54673;52.262;6.830;2023-04-01T10:53:40;18.90;56.20
67870;DHT22;54673;52.262;6.830;2023-04-01T10:56:11;18.90;55.20
67870;DHT22;54673;52.262;6.830;2023-04-01T11:04:39;18.90;55.50
67870;DHT22;54673;52.262;6.830;2023-04-01T11:10:38;18.90;55.60
67870;DHT22;54673;52.262;6.830;2023-04-01T11:13:38;18.90;55.70
67870;DHT22;54673;52.262;6.830;2023-04-01T11:21:59;18.90;55.50
67870;DHT22;54673;52.262;6.830;2023-04-01T11:30:22;18.90;56.00
67870;DHT22;54673;52.262;6.830;2023-04-01T11:35:29;19.00;56.00
67870;DHT22;54673;52.262;6.830;2023-04-01T11:40:54;18.90;56.20
67870;DHT22;54673;52.262;6.830;2023-04-01T11:46:14;18.90;56.10
67870;DHT22;54673;52.262;6.830;2023-04-01T11:48:50;18.90;56.10
67870;DHT22;54673;52.262;6.830;2023-04-01T11:54:41;18.90;56.40
67870;DHT22;54673;52.262;6.830;2023-04-01T12:00:39;18.80;56.50
67870;DHT22;54673;52.262;6.830;2023-04-01T12:03:21;18.80;56.50
67870;DHT22;54673;52.262;6.830;2023-04-01T12:08:49;18.80;56.80
67870;DHT22;54673;52.262;6.830;2023-04-01T12:33:48;19.10;57.20
67870;DHT22;54673;52.262;6.830;2023-04-01T12:39:26;19.10;56.80
67870;DHT22;54673;52.262;6.830;2023-04-01T12:47:40;19.10;56.40
67870;DHT22;54673;52.262;6.830;2023-04-01T12:55:38;19.10;56.20
67870;DHT22;54673;52.262;6.830;2023-04-01T13:01:23;19.10;56.20
67870;DHT22;54673;52.262;6.830;2023-04-01T13:10:06;19.30;55.90
67870;DHT22;54673;52.262;6.830;2023-04-01T13:18:03;19.50;55.70
67870;DHT22;54673;52.262;6.830;2023-04-01T13:28:58;19.70;55.20
67870;DHT22;54673;52.262;6.830;2023-04-01T13:42:28;19.90;54.90
67870;DHT22;54673;52.262;6.830;2023-04-01T13:45:09;19.90;55.00
67870;DHT22;54673;52.262;6.830;2023-04-01T13:54:08;20.00;54.80
67870;DHT22;54673;52.262;6.830;2023-04-01T13:56:56;20.00;54.70
67870;DHT22;54673;52.262;6.830;2023-04-01T14:08:13;20.00;54.90
67870;DHT22;54673;52.262;6.830;2023-04-01T14:10:56;20.10;55.00
67870;DHT22;54673;52.262;6.830;2023-04-01T14:16:21;20.10;55.00
67870;DHT22;54673;52.262;6.830;2023-04-01T14:24:36;20.20;54.60
67870;DHT22;54673;52.262;6.830;2023-04-01T14:27:21;20.30;54.60
67870;DHT22;54673;52.262;6.830;2023-04-01T14:29:56;20.20;54.50
67870;DHT22;54673;52.262;6.830;2023-04-01T14:52:14;20.30;54.60
67870;DHT22;54673;52.262;6.830;2023-04-01T14:54:44;20.30;54.60
67870;DHT22;54673;52.262;6.830;2023-04-01T14:57:16;20.30;54.50
67870;DHT22;54673;52.262;6.830;2023-04-01T14:59:52;20.30;54.50
67870;DHT22;54673;52.262;6.830;2023-04-01T15:16:18;20.40;54.30
67870;DHT22;54673;52.262;6.830;2023-04-01T15:25:05;20.50;54.30
67870;DHT22;54673;52.262;6.830;2023-04-01T15:27:41;20.50;54.30
67870;DHT22;54673;52.262;6.830;2023-04-01T15:30:33;20.60;54.20
67870;DHT22;54673;52.262;6.830;2023-04-01T15:35:46;20.60;54.40
67870;DHT22;54673;52.262;6.830;2023-04-01T15:41:02;20.60;54.10
67870;DHT22;54673;52.262;6.830;2023-04-01T15:58:04;20.50;54.50
67870;DHT22;54673;52.262;6.830;2023-04-01T16:00:42;20.60;54.60
67870;DHT22;54673;52.262;6.830;2023-04-01T16:03:15;20.70;54.40
67870;DHT22;54673;52.262;6.830;2023-04-01T16:11:34;20.80;54.20
67870;DHT22;54673;52.262;6.830;2023-04-01T16:17:31;20.90;53.90
67870;DHT22;54673;52.262;6.830;2023-04-01T16:25:35;21.00;53.60
67870;DHT22;54673;52.262;6.830;2023-04-01T16:31:06;21.00;53.60
67870;DHT22;54673;52.262;6.830;2023-04-01T16:34:27;20.90;54.10
67870;DHT22;54673;52.262;6.830;2023-04-01T16:37:08;20.90;54.20
67870;DHT22;54673;52.262;6.830;2023-04-01T16:43:09;20.80;53.90
67870;DHT22;54673;52.262;6.830;2023-04-01T16:45:43;20.70;53.90
67870;DHT22;54673;52.262;6.830;2023-04-01T16:48:15;20.60;54.00
67870;DHT22;54673;52.262;6.830;2023-04-01T16:51:04;20.50;54.00
67870;DHT22;54673;52.262;6.830;2023-04-01T16:53:43;20.40;54.00
67870;DHT22;54673;52.262;6.830;2023-04-01T17:01:26;20.30;54.20
67870;DHT22;54673;52.262;6.830;2023-04-01T17:03:58;20.30;54.10
67870;DHT22;54673;52.262;6.830;2023-04-01T17:06:43;20.30;54.10
67870;DHT22;54673;52.262;6.830;2023-04-01T17:09:33;20.30;54.10
67870;DHT22;54673;52.262;6.830;2023-04-01T17:12:25;20.20;54.10
67870;DHT22;54673;52.262;6.830;2023-04-01T17:20:50;20.20;53.90
67870;DHT22;54673;52.262;6.830;2023-04-01T17:29:04;20.20;53.90
67870;DHT22;54673;52.262;6.830;2023-04-01T17:34:32;20.10;53.90
67870;DHT22;54673;52.262;6.830;2023-04-01T17:37:09;20.10;54.00
67870;DHT22;54673;52.262;6.830;2023-04-01T17:39:57;20.10;54.30
67870;DHT22;54673;52.262;6.830;2023-04-01T17:42:49;20.00;54.10
67870;DHT22;54673;52.262;6.830;2023-04-01T17:45:28;20.00;54.20
67870;DHT22;54673;52.262;6.830;2023-04-01T17:50:53;19.90;54.20
67870;DHT22;54673;52.262;6.830;2023-04-01T17:56:17;19.90;54.20
67870;DHT22;54673;52.262;6.830;2023-04-01T17:59:03;19.90;54.30
67870;DHT22;54673;52.262;6.830;2023-04-01T18:01:56;19.80;54.30
67870;DHT22;54673;52.262;6.830;2023-04-01T18:04:45;19.80;54.30
67870;DHT22;54673;52.262;6.830;2023-04-01T18:07:26;19.80;54.30
67870;DHT22;54673;52.262;6.830;2023-04-01T18:10:09;19.80;54.50
67870;DHT22;54673;52.262;6.830;2023-04-01T18:15:35;19.70;54.60
67870;DHT22;54673;52.262;6.830;2023-04-01T18:18:25;19.70;54.80
67870;DHT22;54673;52.262;6.830;2023-04-01T18:24:10;19.80;55.20
67870;DHT22;54673;52.262;6.830;2023-04-01T18:26:39;19.80;55.10
67870;DHT22;54673;52.262;6.830;2023-04-01T18:31:54;20.10;54.60
67870;DHT22;54673;52.262;6.830;2023-04-01T18:37:12;20.30;54.10
67870;DHT22;54673;52.262;6.830;2023-04-01T18:39:47;20.30;54.00
67870;DHT22;54673;52.262;6.830;2023-04-01T18:45:22;20.50;53.70
67870;DHT22;54673;52.262;6.830;2023-04-01T18:50:58;20.40;53.90
67870;DHT22;54673;52.262;6.830;2023-04-01T18:53:49;20.50;53.50
67870;DHT22;54673;52.262;6.830;2023-04-01T18:56:39;20.60;53.40
67870;DHT22;54673;52.262;6.830;2023-04-01T18:59:26;20.60;53.30
67870;DHT22;54673;52.262;6.830;2023-04-01T19:02:25;20.60;53.20
67870;DHT22;54673;52.262;6.830;2023-04-01T19:10:37;20.80;53.00
67870;DHT22;54673;52.262;6.830;2023-04-01T19:18:51;20.90;52.80
67870;DHT22;54673;52.262;6.830;2023-04-01T19:21:21;20.90;52.80
67870;DHT22;54673;52.262;6.830;2023-04-01T19:24:03;20.90;52.90
67870;DHT22;54673;52.262;6.830;2023-04-01T19:26:45;20.90;53.00
67870;DHT22;54673;52.262;6.830;2023-04-01T19:40:34;20.90;53.10
67870;DHT22;54673;52.262;6.830;2023-04-01T19:46:10;20.80;53.10
67870;DHT22;54673;52.262;6.830;2023-04-01T19:51:31;20.90;53.00
67870;DHT22;54673;52.262;6.830;2023-04-01T19:56:54;20.80;53.30
67870;DHT22;54673;52.262;6.830;2023-04-01T19:59:31;20.90;53.40
67870;DHT22;54673;52.262;6.830;2023-04-01T20:07:31;21.10;52.50
67870;DHT22;54673;52.262;6.830;2023-04-01T20:10:13;21.00;53.40
67870;DHT22;54673;52.262;6.830;2023-04-01T20:15:40;21.00;52.80
67870;DHT22;54673;52.262;6.830;2023-04-01T20:18:37;21.00;52.60
67870;DHT22;54673;52.262;6.830;2023-04-01T20:24:04;20.90;53.00
67870;DHT22;54673;52.262;6.830;2023-04-01T20:26:35;20.90;53.10
67870;DHT22;54673;52.262;6.830;2023-04-01T20:40:51;21.00;53.20
67870;DHT22;54673;52.262;6.830;2023-04-01T20:49:23;21.00;53.10
67870;DHT22;54673;52.262;6.830;2023-04-01T20:52:00;21.20;52.70
67870;DHT22;54673;52.262;6.830;2023-04-01T21:00:37;20.90;50.10
67870;DHT22;54673;52.262;6.830;2023-04-01T21:08:39;20.50;50.70
67870;DHT22;54673;52.262;6.830;2023-04-01T21:11:41;20.40;51.20
67870;DHT22;54673;52.262;6.830;2023-04-01T21:20:04;20.20;51.90
67870;DHT22;54673;52.262;6.830;2023-04-01T21:22:49;20.20;51.90
67870;DHT22;54673;52.262;6.830;2023-04-01T21:25:52;20.20;51.90
67870;DHT22;54673;52.262;6.830;2023-04-01T21:31:44;20.10;52.90
67870;DHT22;54673;52.262;6.830;2023-04-01T21:34:31;20.00;52.00
67870;DHT22;54673;52.262;6.830;2023-04-01T21:42:13;20.00;51.70
67870;DHT22;54673;52.262;6.830;2023-04-01T21:44:59;20.00;51.50
67870;DHT22;54673;52.262;6.830;2023-04-01T21:54:11;19.80;51.60
67870;DHT22;54673;52.262;6.830;2023-04-01T21:56:37;19.80;51.70
67870;DHT22;54673;52.262;6.830;2023-04-01T22:07:19;19.60;51.50
67870;DHT22;54673;52.262;6.830;2023-04-01T22:09:50;19.70;51.40
67870;DHT22;54673;52.262;6.830;2023-04-01T22:12:26;19.70;51.30
67870;DHT22;54673;52.262;6.830;2023-04-01T22:18:07;19.60;51.00
67870;DHT22;54673;52.262;6.830;2023-04-01T22:20:50;19.60;51.00
67870;DHT22;54673;52.262;6.830;2023-04-01T22:23:29;19.60;50.90
67870;DHT22;54673;52.262;6.830;2023-04-01T22:26:13;19.60;51.00
67870;DHT22;54673;52.262;6.830;2023-04-01T22:28:49;19.50;51.00
67870;DHT22;54673;52.262;6.830;2023-04-01T22:31:25;19.50;50.90
67870;DHT22;54673;52.262;6.830;2023-04-01T22:34:20;19.40;50.90
67870;DHT22;54673;52.262;6.830;2023-04-01T22:48:12;19.40;50.60
67870;DHT22;54673;52.262;6.830;2023-04-01T22:56:12;19.30;50.60
67870;DHT22;54673;52.262;6.830;2023-04-01T22:58:50;19.30;50.60
67870;DHT22;54673;52.262;6.830;2023-04-01T23:01:24;19.10;50.60
67870;DHT22;54673;52.262;6.830;2023-04-01T23:03:52;19.10;50.80
67870;DHT22;54673;52.262;6.830;2023-04-01T23:06:25;19.00;51.00
67870;DHT22;54673;52.262;6.830;2023-04-01T23:19:27;18.90;50.70
67870;DHT22;54673;52.262;6.830;2023-04-01T23:22:02;18.70;51.40
67870;DHT22;54673;52.262;6.830;2023-04-01T23:29:44;18.90;50.70
67870;DHT22;54673;52.262;6.830;2023-04-01T23:32:18;18.90;50.60
67870;DHT22;54673;52.262;6.830;2023-04-01T23:34:52;18.90;50.60
67870;DHT22;54673;52.262;6.830;2023-04-01T23:37:19;18.90;50.50
67870;DHT22;54673;52.262;6.830;2023-04-01T23:39:47;18.80;50.50
67870;DHT22;54673;52.262;6.830;2023-04-01T23:42:19;18.80;50.60
67870;DHT22;54673;52.262;6.830;2023-04-01T23:44:46;18.80;50.50
67870;DHT22;54673;52.262;6.830;2023-04-01T23:47:25;18.80;50.50
67870;DHT22;54673;52.262;6.830;2023-04-01T23:49:55;18.70;50.50
67870;DHT22;54673;52.262;6.830;2023-04-01T23:52:23;18.70;50.50
67870;DHT22;54673;52.262;6.830;2023-04-01T23:54:56;18.70;50.30
67870;DHT22;54673;52.262;6.830;2023-04-01T23:57:30;18.70;50.40
